createdAt,value
2016-11-15T00:02:32.414Z,1025.1
2016-11-15T00:07:36.495Z,1025
2016-11-15T00:12:40.575Z,1024.9
2016-11-15T00:17:44.655Z,1024.8
2016-11-15T00:22:49.078Z,1024.8
2016-11-15T00:27:53.157Z,1024.6
2016-11-15T00:32:57.575Z,1024.6
2016-11-15T00:38:01.650Z,1024.6
2016-11-15T00:43:05.732Z,1024.5
2016-11-15T00:48:09.823Z,1024.4
2016-11-15T00:53:14.237Z,1024.5
2016-11-15T00:58:18.323Z,1024.5
2016-11-15T01:03:22.404Z,1024.4
2016-11-15T01:08:26.816Z,1024.4
2016-11-15T01:13:30.899Z,1024.4
2016-11-15T01:18:35.322Z,1024.3
2016-11-15T01:23:39.747Z,1024.3
2016-11-15T01:28:44.167Z,1024.3
2016-11-15T01:33:48.247Z,1024.3
2016-11-15T01:38:52.330Z,1024.1
2016-11-15T01:43:56.408Z,1024.1
2016-11-15T01:49:00.497Z,1024
2016-11-15T01:54:05.242Z,1024
2016-11-15T01:59:09.318Z,1023.9
2016-11-15T02:04:13.400Z,1023.9
2016-11-15T02:09:17.481Z,1023.9
2016-11-15T02:14:21.891Z,1023.9
2016-11-15T02:19:26.651Z,1023.8
2016-11-15T02:24:31.069Z,1023.8
2016-11-15T02:29:35.825Z,1023.8
2016-11-15T02:34:40.251Z,1023.7
2016-11-15T02:39:45.008Z,1023.7
2016-11-15T02:44:49.101Z,1023.7
2016-11-15T02:49:53.184Z,1023.6
2016-11-15T02:54:57.604Z,1023.6
2016-11-15T03:00:01.684Z,1023.5
2016-11-15T03:05:05.762Z,1023.5
2016-11-15T03:10:10.182Z,1023.5
2016-11-15T03:15:15.269Z,1023.4
2016-11-15T03:20:19.360Z,1023.3
2016-11-15T03:25:23.443Z,1023.2
2016-11-15T03:30:27.873Z,1023.1
2016-11-15T03:35:31.960Z,1023.1
2016-11-15T03:40:36.374Z,1023
2016-11-15T03:45:40.788Z,1023
2016-11-15T03:50:44.876Z,1022.9
2016-11-15T03:55:49.285Z,1022.8
2016-11-15T04:00:53.361Z,1022.8
2016-11-15T04:05:57.786Z,1022.7
2016-11-15T04:11:02.201Z,1022.7
2016-11-15T04:16:06.286Z,1022.8
2016-11-15T04:21:10.706Z,1022.7
2016-11-15T04:26:15.129Z,1022.6
2016-11-15T04:31:19.551Z,1022.6
2016-11-15T04:36:23.638Z,1022.5
2016-11-15T04:41:27.720Z,1022.5
2016-11-15T04:46:31.802Z,1022.5
2016-11-15T04:51:36.223Z,1022.4
2016-11-15T04:56:40.977Z,1022.3
2016-11-15T05:01:45.081Z,1022.3
2016-11-15T05:06:49.173Z,1022.1
2016-11-15T05:11:53.261Z,1022
2016-11-15T05:16:57.345Z,1021.9
2016-11-15T05:22:01.436Z,1021.8
2016-11-15T05:27:06.125Z,1021.8
2016-11-15T05:32:10.548Z,1021.7
2016-11-15T05:37:14.968Z,1021.7
2016-11-15T05:42:19.445Z,1021.6
2016-11-15T05:47:23.879Z,1021.6
2016-11-15T05:52:28.296Z,1021.6
2016-11-15T05:57:32.722Z,1021.5
2016-11-15T06:02:37.151Z,1021.7
2016-11-15T06:07:41.241Z,1021.5
2016-11-15T06:12:45.685Z,1021.5
2016-11-15T06:17:50.107Z,1021.4
2016-11-15T06:22:54.225Z,1021.3
2016-11-15T06:27:58.640Z,1021.4
2016-11-15T06:33:02.732Z,1021.4
2016-11-15T06:38:06.812Z,1021.4
2016-11-15T06:43:10.894Z,1021.4
2016-11-15T06:48:14.977Z,1021.4
2016-11-15T06:53:19.063Z,1021.5
2016-11-15T06:58:24.148Z,1021.4
2016-11-15T07:03:28.231Z,1021.4
2016-11-15T07:08:32.653Z,1021.4
2016-11-15T07:13:36.742Z,1021.3
2016-11-15T07:18:41.497Z,1021.2
2016-11-15T07:23:45.589Z,1021.2
2016-11-15T07:28:49.677Z,1021.1
2016-11-15T07:33:53.764Z,1021.1
2016-11-15T07:38:57.844Z,1021
2016-11-15T07:44:01.930Z,1021
2016-11-15T07:49:06.347Z,1021
2016-11-15T07:54:10.439Z,1021
2016-11-15T07:59:14.861Z,1021
2016-11-15T08:04:18.948Z,1020.9
2016-11-15T08:09:23.039Z,1020.9
2016-11-15T08:14:27.465Z,1020.9
2016-11-15T08:19:32.219Z,1020.8
2016-11-15T08:24:36.305Z,1020.7
2016-11-15T08:29:40.408Z,1020.7
2016-11-15T08:34:44.838Z,1020.8
2016-11-15T08:39:48.931Z,1020.8
2016-11-15T08:44:53.018Z,1020.7
2016-11-15T08:49:57.776Z,1020.7
2016-11-15T08:55:01.857Z,1020.7
2016-11-15T09:00:05.940Z,1020.6
2016-11-15T09:05:10.035Z,1020.7
2016-11-15T09:10:14.118Z,1020.6
2016-11-15T09:15:18.204Z,1020.7
2016-11-15T09:20:22.627Z,1020.6
2016-11-15T09:25:26.716Z,1020.6
2016-11-15T09:30:30.800Z,1020.5
2016-11-15T09:35:34.887Z,1020.5
2016-11-15T09:40:39.647Z,1020.3
2016-11-15T09:45:43.736Z,1020.2
2016-11-15T09:50:47.823Z,1020.1
2016-11-15T09:55:51.919Z,1020.2
2016-11-15T10:00:55.999Z,1020
2016-11-15T10:06:00.425Z,1020
2016-11-15T10:11:04.853Z,1019.9
2016-11-15T10:16:08.946Z,1019.9
2016-11-15T10:21:13.039Z,1019.8
2016-11-15T10:26:17.120Z,1019.9
2016-11-15T10:31:21.547Z,1020
2016-11-15T10:36:25.973Z,1019.8
2016-11-15T10:41:30.065Z,1019.8
2016-11-15T10:46:34.153Z,1019.9
2016-11-15T10:51:38.586Z,1019.8
2016-11-15T10:56:42.671Z,1019.7
2016-11-15T11:01:46.768Z,1019.7
2016-11-15T11:06:51.201Z,1019.6
2016-11-15T11:11:55.294Z,1019.6
2016-11-15T11:16:59.718Z,1019.7
2016-11-15T11:22:04.138Z,1019.5
2016-11-15T11:27:08.823Z,1019.6
2016-11-15T11:32:13.247Z,1019.5
2016-11-15T11:37:17.675Z,1019.4
2016-11-15T11:42:22.107Z,1019.4
2016-11-15T11:47:26.524Z,1019.3
2016-11-15T11:52:30.951Z,1019.3
2016-11-15T11:57:35.033Z,1019.3
2016-11-15T12:02:39.792Z,1019.3
2016-11-15T12:07:44.214Z,1019.3
2016-11-15T12:12:48.645Z,1019.2
2016-11-15T12:17:52.732Z,1019.1
2016-11-15T12:22:56.820Z,1019.1
2016-11-15T12:28:00.909Z,1019
2016-11-15T12:33:05.001Z,1018.9
2016-11-15T12:38:09.760Z,1018.8
2016-11-15T12:43:13.847Z,1018.8
2016-11-15T12:48:17.940Z,1018.7
2016-11-15T12:53:22.112Z,1018.5
2016-11-15T12:58:26.202Z,1018.6
2016-11-15T13:03:30.629Z,1018.6
2016-11-15T13:08:35.057Z,1018.6
2016-11-15T13:13:39.494Z,1018.6
2016-11-15T13:18:43.742Z,1018.5
2016-11-15T13:23:48.099Z,1018.4
2016-11-15T13:28:52.157Z,1018.4
2016-11-15T13:33:56.912Z,1018.4
2016-11-15T13:39:01.349Z,1018.4
2016-11-15T13:44:05.772Z,1018.3
2016-11-15T13:49:10.195Z,1018.4
2016-11-15T13:54:14.282Z,1018.4
2016-11-15T13:59:19.035Z,1018.4
2016-11-15T14:04:23.117Z,1018.3
2016-11-15T14:09:27.200Z,1018.1
2016-11-15T14:14:31.317Z,1018.2
2016-11-15T14:19:35.406Z,1018.2
2016-11-15T14:24:39.869Z,1018.3
2016-11-15T14:29:43.951Z,1018.3
2016-11-15T14:34:48.708Z,1018.3
2016-11-15T14:39:52.864Z,1018.2
2016-11-15T14:44:57.282Z,1018.2
2016-11-15T14:50:01.704Z,1018.2
2016-11-15T14:55:06.140Z,1018.1
2016-11-15T15:00:10.631Z,1018.2
2016-11-15T15:05:14.753Z,1018.3
2016-11-15T15:10:18.896Z,1018.3
2016-11-15T15:15:23.456Z,1018.3
2016-11-15T15:20:27.589Z,1018.3
2016-11-15T15:25:32.013Z,1018.4
2016-11-15T15:30:36.438Z,1018.3
2016-11-15T15:35:40.528Z,1018.3
2016-11-15T15:40:44.615Z,1018.3
2016-11-15T15:45:49.057Z,1018.4
2016-11-15T15:50:53.483Z,1018.4
2016-11-15T15:55:57.573Z,1018.5
2016-11-15T16:01:01.999Z,1018.5
2016-11-15T16:06:06.300Z,1018.4
2016-11-15T16:11:10.384Z,1018.5
2016-11-15T16:16:15.163Z,1018.6
2016-11-15T16:21:19.644Z,1018.6
2016-11-15T16:26:23.897Z,1018.7
2016-11-15T16:31:28.002Z,1018.8
2016-11-15T16:36:32.433Z,1018.8
2016-11-15T16:41:36.852Z,1018.9
2016-11-15T16:46:40.945Z,1018.9
2016-11-15T16:51:45.221Z,1018.9
2016-11-15T16:56:49.979Z,1018.9
2016-11-15T17:01:54.596Z,1019
2016-11-15T17:06:58.995Z,1019.1
2016-11-15T17:12:03.414Z,1019.2
2016-11-15T17:17:07.861Z,1019.2
2016-11-15T17:22:11.950Z,1019.3
2016-11-15T17:27:16.705Z,1019.2
2016-11-15T17:32:20.810Z,1019.3
2016-11-15T17:37:25.257Z,1019.3
2016-11-15T17:42:29.366Z,1019.3
2016-11-15T17:47:33.460Z,1019.3
2016-11-15T17:52:37.891Z,1019.4
2016-11-15T17:57:41.971Z,1019.5
2016-11-15T18:02:46.272Z,1019.6
2016-11-15T18:07:50.363Z,1019.7
2016-11-15T18:12:54.495Z,1019.7
2016-11-15T18:17:58.916Z,1019.7
2016-11-15T18:23:03.351Z,1019.8
2016-11-15T18:28:07.456Z,1019.8
2016-11-15T18:33:11.638Z,1019.8
2016-11-15T18:38:15.724Z,1019.7
2016-11-15T18:43:20.151Z,1019.8
2016-11-15T18:48:24.916Z,1019.9
2016-11-15T18:53:29.674Z,1019.9
2016-11-15T18:58:34.283Z,1020
2016-11-15T19:03:38.691Z,1020.1
2016-11-15T19:08:42.784Z,1020
2016-11-15T19:13:46.883Z,1020
2016-11-15T19:18:50.974Z,1020
2016-11-15T19:23:55.062Z,1020
2016-11-15T19:28:59.151Z,1020
2016-11-15T19:34:03.238Z,1020
2016-11-15T19:39:07.521Z,1020.1
2016-11-15T19:44:11.955Z,1020.1
2016-11-15T19:49:16.051Z,1020.2
2016-11-15T19:54:20.444Z,1020.2
2016-11-15T19:59:24.535Z,1020.2
2016-11-15T20:04:28.622Z,1020.2
2016-11-15T20:09:33.042Z,1020.2
2016-11-15T20:14:38.422Z,1020.2
2016-11-15T20:19:42.995Z,1020.3
2016-11-15T20:24:47.072Z,1020.3
2016-11-15T20:29:51.162Z,1020.2
2016-11-15T20:34:55.249Z,1020.2
2016-11-15T20:39:59.330Z,1020.1
2016-11-15T20:45:03.751Z,1020.2
2016-11-15T20:50:08.189Z,1020.2
2016-11-15T20:55:12.609Z,1020.2
2016-11-15T21:00:17.238Z,1020.3
2016-11-15T21:05:21.655Z,1020.4
2016-11-15T21:10:26.083Z,1020.3
2016-11-15T21:15:30.163Z,1020.3
2016-11-15T21:20:34.601Z,1020.3
2016-11-15T21:25:39.025Z,1020.3
2016-11-15T21:30:43.111Z,1020.2
2016-11-15T21:35:47.532Z,1020.3
2016-11-15T21:40:51.958Z,1020.2
2016-11-15T21:45:56.069Z,1020.3
2016-11-15T21:51:00.602Z,1020.2
2016-11-15T21:56:05.037Z,1020.3
2016-11-15T22:01:09.118Z,1020.3
2016-11-15T22:06:13.203Z,1020.4
2016-11-15T22:11:18.295Z,1020.3
2016-11-15T22:16:22.389Z,1020.3
2016-11-15T22:21:26.490Z,1020.3
2016-11-15T22:26:30.589Z,1020.2
2016-11-15T22:31:34.687Z,1020.3
2016-11-15T22:36:39.453Z,1020.3
2016-11-15T22:41:43.886Z,1020.4
2016-11-15T22:46:48.644Z,1020.4
2016-11-15T22:51:52.732Z,1020.3
2016-11-15T22:56:57.500Z,1020.2
2016-11-15T23:02:01.919Z,1020.1
2016-11-15T23:07:06.008Z,1020.2
2016-11-15T23:12:10.091Z,1020.1
2016-11-15T23:17:14.513Z,1020.1
2016-11-15T23:22:18.933Z,1020
2016-11-15T23:27:23.034Z,1020
2016-11-15T23:32:27.454Z,1020
2016-11-15T23:37:31.878Z,1020
2016-11-15T23:42:35.964Z,1019.9
2016-11-15T23:47:40.049Z,1019.8
2016-11-15T23:52:44.129Z,1019.9
2016-11-15T23:57:48.887Z,1019.9
